Flight Track Log - Related Links

Times and Time Zones

All times are in EDT time to prevent confusion due to time zone crossing. See the EJA122 flight status page for this flight to view local times or setup timezone preferences in your user account.

Time Position Orientation Groundspeed Altitude Reporting Facility
EDT Latitude Longitude Course Direction KTS MPH feet Rate Location/Type
Sat 11:05:19 AM 41.7833 -87.8000 171° South 211 243 3,000  Level Chicago TRACON
Sat 11:06:19 AM 41.7333 -87.8500 217° Southwest 254 292 3,600 1,676 Climbing Chicago TRACON
Sat 11:08:18 AM 41.6044 -87.7522 150° Southeast 297 342 8,000 1,956 Climbing Chicago Center
Sat 11:09:20 AM 41.5275 -87.6775 144° Southeast 305 351 9,500 2,098 Climbing Chicago Center
Sat 11:10:00 AM 41.3038 -87.5474 171° South  Level FlightAware
Sat 11:10:21 AM 41.4386 -87.6381 162° South 318 366 12,300  Level Chicago Center
Sat 11:11:23 AM 41.3428 -87.6114 168° South 343 395 14,000 1,161 Climbing Chicago Center
Sat 11:12:25 AM 41.2331 -87.5897 172° South 392 451 14,700 1,065 Climbing Chicago Center
Sat 11:13:27 AM 41.1211 -87.5697 172° South 400 460 16,200 1,512 Climbing Chicago Center
Sat 11:14:28 AM 41.0067 -87.5197 162° South 427 491 17,800 1,415 Climbing Chicago Center
Sat 11:15:30 AM 40.8900 -87.4750 164° South 434 499 19,100 1,403 Climbing Chicago Center
Sat 11:16:32 AM 40.7708 -87.4297 164° South 442 509 20,700 1,645 Climbing Chicago Center
Sat 11:17:34 AM 40.6311 -87.3719 163° South 441 507 22,500 1,707 Climbing Chicago Center
Sat 11:18:35 AM 40.5206 -87.2950 152° Southeast 451 519 24,200 1,561 Climbing Chicago Center
Sat 11:19:37 AM 40.4061 -87.2222 154° Southeast 456 525 25,700 1,500 Climbing Chicago Center
Sat 11:20:39 AM 40.2969 -87.1403 150° Southeast 454 522 27,300 1,317 Climbing Chicago Center
Sat 11:21:40 AM 40.1844 -87.0586 151° Southeast 461 531 28,400 1,176 Climbing Chicago Center
Sat 11:22:21 AM 40.1061 -87.0017 151° Southeast 463 533 29,300 1,223 Climbing Indianapolis Center
Sat 11:23:23 AM 39.9842 -86.9511 162° South 460 529 30,500 1,122 Climbing Indianapolis Center
Sat 11:24:24 AM 39.8631 -86.9089 165° South 451 519 31,600 1,122 Climbing Indianapolis Center
Sat 11:25:26 AM 39.7442 -86.8658 164° South 444 511 32,800 1,161 Climbing Indianapolis Center
Sat 11:26:28 AM 39.6253 -86.8183 163° South 443 510 34,000 1,268 Climbing Indianapolis Center
Sat 11:27:29 AM 39.4922 -86.7375 155° Southeast 449 517 35,400 1,220 Climbing Indianapolis Center
Sat 11:28:31 AM 39.3892 -86.6486 146° Southeast 443 510 36,500 976 Climbing Indianapolis Center
Sat 11:29:32 AM 39.2894 -86.5639 147° Southeast 430 495 37,400 927 Climbing Indianapolis Center
Sat 11:30:34 AM 39.1914 -86.4797 146° Southeast 422 486 38,400 780 Climbing Indianapolis Center
Sat 11:31:35 AM 39.0958 -86.4006 147° Southeast 409 471 39,000 295 Climbing Indianapolis Center
Sat 11:32:36 AM 39.0000 -86.3183 146° Southeast 410 472 39,000  Level Indianapolis Center
Sat 11:33:38 AM 38.9003 -86.2361 147° Southeast 419 482 39,000  Level Indianapolis Center
Sat 11:34:39 AM 38.7986 -86.1494 146° Southeast 431 496 39,000  Level Indianapolis Center
Sat 11:35:41 AM 38.6956 -86.0650 147° Southeast 435 501 39,000  Level Indianapolis Center
Sat 11:36:42 AM 38.5919 -85.9792 147° Southeast 439 505 39,000  Level Indianapolis Center
Sat 11:37:44 AM 38.4875 -85.8928 147° Southeast 444 511 39,000  Level Indianapolis Center
Sat 11:38:45 AM 38.3856 -85.8069 147° Southeast 437 503 39,000  Level Indianapolis Center
Sat 11:39:47 AM 38.2783 -85.7197 147° Southeast 450 518 39,000  Level Indianapolis Center
Sat 11:40:48 AM 38.1731 -85.6347 148° Southeast 446 513 39,000  Level Indianapolis Center
Sat 11:41:50 AM 38.0464 -85.5317 147° Southeast 448 516 39,000  Level Indianapolis Center
Sat 11:42:51 AM 37.9428 -85.4469 147° Southeast 443 510 39,000  Level Indianapolis Center
Sat 11:43:52 AM 37.8358 -85.3619 148° Southeast 447 514 39,000  Level Indianapolis Center
Sat 11:44:54 AM 37.7256 -85.2803 150° Southeast 452 520 39,000  Level Indianapolis Center
Sat 11:45:55 AM 37.6200 -85.1967 148° Southeast 448 516 39,000  Level Indianapolis Center
Sat 11:46:56 AM 37.5128 -85.1156 149° Southeast 448 516 39,000  Level Indianapolis Center
Sat 11:47:58 AM 37.4075 -85.0325 148° Southeast 446 513 39,000  Level Indianapolis Center
Sat 11:48:59 AM 37.3008 -84.9503 148° Southeast 449 517 39,000  Level Indianapolis Center
Sat 11:50:01 AM 37.1939 -84.8678 148° Southeast 450 518 39,000  Level Indianapolis Center
Sat 11:51:02 AM 37.0697 -84.7711 148° Southeast 449 517 39,000  Level Indianapolis Center
Sat 11:52:03 AM 36.9661 -84.6933 149° Southeast 447 514 39,000  Level Indianapolis Center
Sat 11:53:05 AM 36.8600 -84.6119 148° Southeast 446 513 39,000  Level Indianapolis Center
Sat 11:54:06 AM 36.7531 -84.5308 149° Southeast 447 514 39,000  Level Indianapolis Center
Sat 11:55:07 AM 36.6475 -84.4508 149° Southeast 440 506 39,000  Level Indianapolis Center
Sat 11:56:09 AM 36.5422 -84.3711 149° Southeast 440 506 39,000  Level Indianapolis Center
Sat 11:58:05 AM 36.3292 -84.2114 149° Southeast 442 509 39,000  Level Atlanta Center
Sat 11:59:05 AM 36.2272 -84.1339 148° Southeast 442 509 39,000  Level Atlanta Center
Sat 12:00:05 PM 36.1250 -84.0567 149° Southeast 437 503 39,000  Level Atlanta Center
Sat 12:01:05 PM 36.0208 -83.9797 149° Southeast 437 503 39,000  Level Atlanta Center
Sat 12:02:05 PM 35.9164 -83.9056 150° Southeast 437 503 39,000  Level Atlanta Center
Sat 12:03:05 PM 35.8142 -83.8236 147° Southeast 437 503 39,000  Level Atlanta Center
Sat 12:04:05 PM 35.7117 -83.7394 146° Southeast 443 510 39,000  Level Atlanta Center
Sat 12:05:05 PM 35.6133 -83.6608 147° Southeast 443 510 39,000  Level Atlanta Center
Sat 12:06:05 PM 35.5108 -83.5769 146° Southeast 438 504 39,000  Level Atlanta Center
Sat 12:07:05 PM 35.4083 -83.4961 147° Southeast 433 498 39,000  Level Atlanta Center
Sat 12:08:05 PM 35.3056 -83.4128 147° Southeast 433 498 39,000  Level Atlanta Center
Sat 12:09:05 PM 35.2050 -83.3322 147° Southeast 433 498 39,000  Level Atlanta Center
Sat 12:10:05 PM 35.1086 -83.2517 146° Southeast 428 493 39,000  Level Atlanta Center
Sat 12:11:05 PM 35.0081 -83.1792 149° Southeast 428 493 39,000  Level Atlanta Center
Sat 12:12:05 PM 34.9092 -83.0967 146° Southeast 428 493 39,000  Level Atlanta Center
Sat 12:13:05 PM 34.8189 -83.0267 148° Southeast 425 489 39,000 -350 Level Atlanta Center
Sat 12:14:05 PM 34.7222 -82.9469 146° Southeast 425 489 38,300 -1,100 Descending Atlanta Center
Sat 12:15:05 PM 34.6256 -82.8725 148° Southeast 419 482 36,800 -1,550 Descending Atlanta Center
Sat 12:16:05 PM 34.5353 -82.8006 147° Southeast 406 467 35,200 -1,550 Descending Atlanta Center
Sat 12:17:05 PM 34.4383 -82.7292 149° Southeast 398 458 33,700 -1,500 Descending Atlanta Center
Sat 12:18:05 PM 34.3436 -82.6525 146° Southeast 390 449 32,200 -850 Descending Atlanta Center
Sat 12:19:05 PM 34.2489 -82.5811 148° Southeast 390 449 32,000 -650 Descending Atlanta Center
Sat 12:20:05 PM 34.1583 -82.5100 147° Southeast 395 455 30,900 -1,600 Descending Atlanta Center
Sat 12:21:05 PM 34.0614 -82.4389 149° Southeast 395 455 28,800 -1,950 Descending Atlanta Center
Sat 12:22:05 PM 33.9664 -82.3631 146° Southeast 403 464 27,000 -900 Descending Atlanta Center
Sat 12:23:05 PM 33.8694 -82.2900 148° Southeast 408 470 27,000  Level Atlanta Center
Sat 12:25:32 PM 33.6622 -82.0292 134° Southeast 454 522 27,000 -145 Level Jacksonville Center
Sat 12:26:32 PM 33.6153 -81.8700 109° East 468 539 26,500 -1,000 Descending Jacksonville Center
Sat 12:27:32 PM 33.5658 -81.7186 111° Southeast 479 551 25,000 -750 Descending Jacksonville Center
Sat 12:28:32 PM 33.5186 -81.5647 110° East 484 557 25,000 -500 Level Jacksonville Center
Sat 12:29:32 PM 33.4708 -81.4136 111° Southeast 490 564 24,000 -500 Descending Jacksonville Center
Sat 12:30:32 PM 33.4275 -81.2772 111° Southeast 485 558 24,000 -550 Level Jacksonville Center
Sat 12:31:32 PM 33.3817 -81.1364 111° Southeast 472 543 22,900 -2,350 Descending Jacksonville Center
Sat 12:32:32 PM 33.3403 -81.0006 110° East 450 518 19,300 -3,450 Descending Jacksonville Center
Sat 12:33:32 PM 33.2942 -80.8697 113° Southeast 435 501 16,000 -3,250 Descending Jacksonville Center
Sat 12:34:32 PM 33.2547 -80.7464 111° Southeast 414 476 12,800 -2,500 Descending Jacksonville Center
Sat 12:35:32 PM 33.2150 -80.6258 111° Southeast 395 455 11,000 -1,300 Descending Jacksonville Center
Sat 12:36:32 PM 33.1775 -80.5100 111° Southeast 384 442 10,200 -1,050 Descending Jacksonville Center
Sat 12:37:32 PM 33.1464 -80.4192 112° Southeast 344 396 8,900 -1,650 Descending Jacksonville Center
Sat 12:38:32 PM 33.0808 -80.3789 153° Southeast 289 333 6,900 -1,500 Descending Jacksonville Center
Sat 12:39:32 PM 33.0078 -80.3783 180° South 250 288 5,900 -450 Descending Jacksonville Center
Sat 12:40:32 PM 32.9347 -80.3756 178° South 257 296 6,000  Climbing Jacksonville Center
Sat 12:41:32 PM 32.8617 -80.3725 178° South 262 302 5,900 -500 Descending Jacksonville Center
Sat 12:42:32 PM 32.8000 -80.3200 144° Southeast 262 302 5,000 -950 Descending Jacksonville Center
Sat 12:43:32 PM 32.7425 -80.2622 140° Southeast 257 296 4,000 -1,000 Descending Jacksonville Center
Sat 12:45:00 PM 32.7121 -80.0719 132° Southeast  Level Estimated

Login

Don't have an account? Register now (free) for customized features, flight alerts, and more!